Huvudsida
METAR-TAF:

METAR-TAF

Flygplatser :

Stavangers flygplats. Sola

Stavanger, Norge

latitud: 58-53N, longitud: 005-38E, höjd: 0 m

Aktuellt väderrapport

Denna rapport gjordes för 13 minuter sedan, klockan 22:50 UTC
Vind 7 kt från ost/sydost
Temperatur 6°C
Fuktighet 65%
Tryck 996 hPa
Sikt 10 km eller mer
Få moln på en höjd av 3200 ft
Brutna moln på en höjd av 6200 ft

METAR: ENZV 112250Z 12007KT 9999 FEW032 BKN062 06/00 Q0996

Tid: 00:03 (23:03 UTC)

Väderprognos

Prognos gäller från 11 kl. 18 UTC till 12 kl. 18 UTC
Vind 8 kt från ost
Sikt 10 km eller mer
Brutna moln på en höjd av 4000 ft
lätt regn
Sannolikhet 40% :
Temporärt
från 11 kl. 18 UTC till 12 kl. 09 UTC
Vind 18 kt från ost/sydost i byarna ända upp till 30 kt

TAF: ENZV 1118/1218 08008KT 9999 -RA BKN040 PROB40 TEMPO 1118/1209 11018G30KT

Aktuella väderrapporter och prognoser från 4000 flygplatser (METAR- och TAF-rapporter).

De tillgängliga stationerna syns som gula och röda prickar på kartan.

För musen över prickarna för att se namnen på stationerna.

Klicka sedan för att få väderrapporter och prognoser.

För att ändra kartan: Klicka på de gröna knapparna med ett svart kors på för att zooma in; den gröna knappen med ett streck på för att zooma ut; eller på de gröna pilarna för angränsande kartor.


METAR-TAF: